createdAt,value
2023-03-02T00:00:20.754Z,61.08
2023-03-02T00:01:20.745Z,61.08
2023-03-02T00:02:20.755Z,61.09
2023-03-02T00:03:20.758Z,61.15
2023-03-02T00:04:20.683Z,61.14
2023-03-02T00:05:20.680Z,61.17
2023-03-02T00:06:20.719Z,61.26
2023-03-02T00:08:20.737Z,61.37
2023-03-02T00:09:20.448Z,61.30
2023-03-02T00:10:20.326Z,61.32
2023-03-02T00:11:20.339Z,61.33
2023-03-02T00:12:20.305Z,61.36
2023-03-02T00:13:20.274Z,61.42
2023-03-02T00:14:20.261Z,61.44
2023-03-02T00:15:20.264Z,61.40
2023-03-02T00:16:20.282Z,61.39
2023-03-02T00:17:20.256Z,61.42
2023-03-02T00:18:20.224Z,61.44
2023-03-02T00:19:20.222Z,61.47
2023-03-02T00:20:20.222Z,61.52
2023-03-02T00:21:20.194Z,61.55
2023-03-02T00:22:20.196Z,61.59
2023-03-02T00:23:20.171Z,61.57
2023-03-02T00:24:20.184Z,61.57
2023-03-02T00:25:20.158Z,61.61
2023-03-02T00:26:20.198Z,61.66
2023-03-02T00:27:20.160Z,61.69
2023-03-02T00:28:20.155Z,61.74
2023-03-02T00:29:20.142Z,61.75
2023-03-02T00:30:20.129Z,61.78
2023-03-02T00:31:20.179Z,61.79
2023-03-02T00:32:20.127Z,61.77
2023-03-02T00:33:20.084Z,61.79
2023-03-02T00:34:20.113Z,61.82
2023-03-02T00:35:20.053Z,61.85
2023-03-02T00:36:20.082Z,61.87
2023-03-02T00:37:20.029Z,61.90
2023-03-02T00:38:20.035Z,61.92
2023-03-02T00:39:20.253Z,61.96
2023-03-02T00:40:20.008Z,61.97
2023-03-02T00:41:19.987Z,61.98
2023-03-02T00:42:20.010Z,62.02
2023-03-02T00:43:19.960Z,62.07
2023-03-02T00:44:19.966Z,62.09
2023-03-02T00:45:19.942Z,62.08
2023-03-02T00:46:19.983Z,62.10
2023-03-02T00:47:19.937Z,62.13
2023-03-02T00:48:19.911Z,62.14
2023-03-02T00:49:19.910Z,62.16
2023-03-02T00:50:19.876Z,62.16
2023-03-02T00:51:19.878Z,62.13
2023-03-02T00:52:19.900Z,62.16
2023-03-02T00:53:19.866Z,62.18
2023-03-02T00:54:19.850Z,62.21
2023-03-02T00:55:19.850Z,62.21
2023-03-02T00:56:19.817Z,62.17
2023-03-02T00:57:19.809Z,62.19
2023-03-02T00:58:19.807Z,62.22
2023-03-02T00:59:19.815Z,62.20
2023-03-02T01:00:19.787Z,62.19
2023-03-02T01:01:19.787Z,62.20
2023-03-02T01:02:19.786Z,62.26
2023-03-02T01:03:19.789Z,62.29
2023-03-02T01:04:19.753Z,62.27
2023-03-02T01:05:19.735Z,62.24
2023-03-02T01:06:19.737Z,62.24
2023-03-02T01:07:19.720Z,62.26
2023-03-02T01:08:19.694Z,62.25
2023-03-02T01:09:19.695Z,62.24
2023-03-02T01:10:19.681Z,62.24
2023-03-02T01:11:19.692Z,62.25
2023-03-02T01:12:19.659Z,62.21
2023-03-02T01:13:19.671Z,62.18
2023-03-02T01:14:19.710Z,62.18
2023-03-02T01:15:19.622Z,62.21
2023-03-02T01:16:19.637Z,62.23
2023-03-02T01:17:19.596Z,62.24
2023-03-02T01:18:19.613Z,62.24
2023-03-02T01:19:19.664Z,62.29
2023-03-02T01:20:19.598Z,62.32
2023-03-02T01:21:19.561Z,62.34
2023-03-02T01:22:19.563Z,62.31
2023-03-02T01:23:19.532Z,62.30
2023-03-02T01:24:19.742Z,62.34
2023-03-02T01:25:19.517Z,62.37
2023-03-02T01:26:19.543Z,62.38
2023-03-02T01:27:19.510Z,62.38
2023-03-02T01:28:19.537Z,62.40
2023-03-02T01:29:19.486Z,62.41
2023-03-02T01:30:19.513Z,62.43
2023-03-02T01:31:19.452Z,62.45
2023-03-02T01:32:19.523Z,62.44
2023-03-02T01:33:19.445Z,62.43
2023-03-02T01:34:19.445Z,62.47
2023-03-02T01:35:19.448Z,62.50
2023-03-02T01:36:19.409Z,62.52
2023-03-02T01:37:19.396Z,62.55
2023-03-02T01:38:19.464Z,62.55
2023-03-02T01:39:19.361Z,62.54
2023-03-02T01:40:19.345Z,62.50
2023-03-02T01:41:19.343Z,62.45
2023-03-02T01:42:19.330Z,62.46
2023-03-02T01:43:19.318Z,62.50
2023-03-02T01:44:19.320Z,62.51
2023-03-02T01:45:19.325Z,62.51
2023-03-02T01:46:19.288Z,62.52
2023-03-02T01:47:19.344Z,62.53
2023-03-02T01:48:19.261Z,62.52
2023-03-02T01:49:19.282Z,62.54
2023-03-02T01:50:19.226Z,62.57
2023-03-02T01:51:19.207Z,62.59
2023-03-02T01:52:19.238Z,62.61
2023-03-02T01:53:19.220Z,62.62
2023-03-02T01:54:19.196Z,62.63
2023-03-02T01:55:19.196Z,62.66
2023-03-02T01:56:19.180Z,62.66
2023-03-02T01:57:19.178Z,62.68
2023-03-02T01:58:19.168Z,62.69
2023-03-02T01:59:19.136Z,62.67
2023-03-02T02:00:19.172Z,62.68
2023-03-02T02:01:19.192Z,62.71
2023-03-02T02:02:19.123Z,62.72
2023-03-02T02:03:19.090Z,62.78
2023-03-02T02:04:19.110Z,62.77
2023-03-02T02:05:19.070Z,62.77
2023-03-02T02:06:19.065Z,62.81
2023-03-02T02:07:19.056Z,62.80
2023-03-02T02:08:19.058Z,62.78
2023-03-02T02:09:19.026Z,62.78
2023-03-02T02:10:19.035Z,62.75
2023-03-02T02:11:19.020Z,62.76
2023-03-02T02:12:19.005Z,62.79
2023-03-02T02:13:18.987Z,62.82
2023-03-02T02:14:18.992Z,62.86
2023-03-02T02:15:18.953Z,62.91
2023-03-02T02:16:18.981Z,62.92
2023-03-02T02:17:18.955Z,62.92
2023-03-02T02:18:18.932Z,62.90
2023-03-02T02:19:18.952Z,62.88
2023-03-02T02:20:18.932Z,62.90
2023-03-02T02:21:18.887Z,62.94
2023-03-02T02:22:18.902Z,62.98
2023-03-02T02:23:18.916Z,62.96
2023-03-02T02:24:18.867Z,62.94
2023-03-02T02:25:18.878Z,62.95
2023-03-02T02:26:18.838Z,62.97
2023-03-02T02:27:18.828Z,63.01
2023-03-02T02:28:18.828Z,63.01
2023-03-02T02:29:18.806Z,62.94
2023-03-02T02:30:18.811Z,62.89
2023-03-02T02:31:18.822Z,62.95
2023-03-02T02:32:18.904Z,63.00
2023-03-02T02:33:18.756Z,63.02
2023-03-02T02:34:18.750Z,62.97
2023-03-02T02:35:18.964Z,62.94
2023-03-02T02:36:18.753Z,62.96
2023-03-02T02:37:18.736Z,63.01
2023-03-02T02:38:18.709Z,63.02
2023-03-02T02:39:18.702Z,63.04
2023-03-02T02:40:18.727Z,63.02
2023-03-02T02:41:18.699Z,62.93
2023-03-02T02:42:18.680Z,62.93
2023-03-02T02:43:18.657Z,63.01
2023-03-02T02:44:18.653Z,63.03
2023-03-02T02:45:18.664Z,63.00
2023-03-02T02:46:18.824Z,62.97
2023-03-02T02:47:18.676Z,62.98
2023-03-02T02:48:18.608Z,62.97
2023-03-02T02:49:18.612Z,63.00
2023-03-02T02:50:18.620Z,63.00
2023-03-02T02:51:18.575Z,62.97
2023-03-02T02:52:18.560Z,63.01
2023-03-02T02:53:18.551Z,62.99
2023-03-02T02:54:18.535Z,63.04
2023-03-02T02:55:18.551Z,63.11
2023-03-02T02:56:18.600Z,63.13
2023-03-02T02:57:18.526Z,63.15
2023-03-02T02:58:18.500Z,63.14
2023-03-02T02:59:18.489Z,63.16
2023-03-02T03:00:18.490Z,63.17
2023-03-02T03:01:18.579Z,63.18
2023-03-02T03:02:18.475Z,63.20
2023-03-02T03:03:18.460Z,63.22
2023-03-02T03:04:18.546Z,63.26
2023-03-02T03:05:18.447Z,63.30
2023-03-02T03:06:18.425Z,63.32
2023-03-02T03:07:18.415Z,63.33
2023-03-02T03:08:18.421Z,63.35
2023-03-02T03:09:18.448Z,63.40
2023-03-02T03:10:18.399Z,63.45
2023-03-02T03:11:18.355Z,63.50
2023-03-02T03:12:18.375Z,63.51
2023-03-02T03:13:18.347Z,63.51
2023-03-02T03:14:18.357Z,63.53
2023-03-02T03:15:18.321Z,63.53
2023-03-02T03:16:18.358Z,63.54
2023-03-02T03:17:18.310Z,63.54
2023-03-02T03:18:18.301Z,63.54
2023-03-02T03:19:18.313Z,63.59
2023-03-02T03:20:18.272Z,63.60
2023-03-02T03:21:18.290Z,63.59
2023-03-02T03:22:18.301Z,63.58
2023-03-02T03:23:18.238Z,63.58
2023-03-02T03:24:18.227Z,63.57
2023-03-02T03:25:18.222Z,63.54
2023-03-02T03:26:18.203Z,63.52
2023-03-02T03:27:18.221Z,63.55
2023-03-02T03:28:18.228Z,63.53
2023-03-02T03:29:18.168Z,63.50
2023-03-02T03:30:18.163Z,63.54
2023-03-02T03:31:18.167Z,63.56
2023-03-02T03:32:18.188Z,63.56
2023-03-02T03:33:18.104Z,63.55
2023-03-02T03:34:18.099Z,63.56
2023-03-02T03:35:18.135Z,63.58
2023-03-02T03:36:18.109Z,63.62
2023-03-02T03:37:18.066Z,63.65
2023-03-02T03:38:18.065Z,63.66
2023-03-02T03:39:18.043Z,63.69
2023-03-02T03:40:18.042Z,63.73
2023-03-02T03:41:18.035Z,63.71
2023-03-02T03:42:18.018Z,63.70
2023-03-02T03:43:18.011Z,63.68
2023-03-02T03:44:17.995Z,63.70
2023-03-02T03:45:17.984Z,63.66
2023-03-02T03:46:18.019Z,63.64
2023-03-02T03:47:17.970Z,63.66
2023-03-02T03:48:17.971Z,63.67
2023-03-02T03:49:17.976Z,63.72
2023-03-02T03:50:17.933Z,63.74
2023-03-02T03:51:17.918Z,63.75
2023-03-02T03:52:17.919Z,63.75
2023-03-02T03:53:17.906Z,63.75
2023-03-02T03:54:17.880Z,63.75
2023-03-02T03:55:17.885Z,63.73
2023-03-02T03:56:17.903Z,63.73
2023-03-02T03:57:17.854Z,63.71
2023-03-02T03:58:17.868Z,63.73
2023-03-02T03:59:17.855Z,63.74
2023-03-02T04:00:17.822Z,63.75
2023-03-02T04:01:17.861Z,63.76
2023-03-02T04:02:17.819Z,63.78
2023-03-02T04:03:17.798Z,63.80
2023-03-02T04:04:17.792Z,63.82
2023-03-02T04:05:17.754Z,63.85
2023-03-02T04:06:17.750Z,63.86
2023-03-02T04:07:17.752Z,63.85
2023-03-02T04:08:17.749Z,63.86
2023-03-02T04:09:17.734Z,63.86
2023-03-02T04:10:17.719Z,63.88
2023-03-02T04:11:17.708Z,63.91
2023-03-02T04:12:17.720Z,63.92
2023-03-02T04:13:17.747Z,63.91
2023-03-02T04:14:17.689Z,63.90
2023-03-02T04:15:17.681Z,63.90
2023-03-02T04:16:17.725Z,63.86
2023-03-02T04:17:17.666Z,63.88
2023-03-02T04:18:17.631Z,63.91
2023-03-02T04:19:17.675Z,63.91
2023-03-02T04:20:17.628Z,63.92
2023-03-02T04:21:17.600Z,63.91
2023-03-02T04:22:17.600Z,63.89
2023-03-02T04:23:17.581Z,63.86
2023-03-02T04:24:17.561Z,63.87
2023-03-02T04:25:17.581Z,63.84
2023-03-02T04:26:17.545Z,63.86
2023-03-02T04:27:17.560Z,63.91
2023-03-02T04:28:17.813Z,63.94
2023-03-02T04:29:17.510Z,63.94
2023-03-02T04:30:17.539Z,63.96
2023-03-02T04:31:17.598Z,64.02
2023-03-02T04:32:17.570Z,64.08
2023-03-02T04:33:17.477Z,64.02
2023-03-02T04:34:17.464Z,63.99
2023-03-02T04:35:17.465Z,63.99
2023-03-02T04:36:17.487Z,64.01
2023-03-02T04:37:17.447Z,64.00
2023-03-02T04:38:17.428Z,64.02
2023-03-02T04:39:17.429Z,64.05
2023-03-02T04:40:17.407Z,64.05
2023-03-02T04:41:17.420Z,64.08
2023-03-02T04:42:17.386Z,64.10
2023-03-02T04:43:17.378Z,64.15
2023-03-02T04:44:17.367Z,64.30
2023-03-02T04:45:17.360Z,64.58
2023-03-02T04:46:17.441Z,65.15
2023-03-02T04:47:17.363Z,65.28
2023-03-02T04:48:17.334Z,65.13
2023-03-02T04:49:17.314Z,65.12
2023-03-02T04:50:17.323Z,65.17
2023-03-02T04:51:17.296Z,65.17
2023-03-02T04:52:17.295Z,65.17
2023-03-02T04:53:17.304Z,65.15
2023-03-02T04:54:17.293Z,65.17
2023-03-02T04:55:17.254Z,65.20
2023-03-02T04:56:17.279Z,65.21
2023-03-02T04:57:17.295Z,65.20
2023-03-02T04:58:17.282Z,65.23
2023-03-02T04:59:17.230Z,65.27
2023-03-02T05:00:17.287Z,65.45
2023-03-02T05:01:17.224Z,65.66
2023-03-02T05:02:17.320Z,65.83
2023-03-02T05:03:17.226Z,66.03
2023-03-02T05:04:17.212Z,66.39
2023-03-02T05:05:17.164Z,66.67
2023-03-02T05:06:17.188Z,66.97
2023-03-02T05:07:17.219Z,66.99
2023-03-02T05:08:17.163Z,66.91
2023-03-02T05:09:17.147Z,66.79
2023-03-02T05:10:17.135Z,66.68
2023-03-02T05:11:17.062Z,66.51
2023-03-02T05:12:17.090Z,66.44
2023-03-02T05:13:17.041Z,66.53
2023-03-02T05:14:17.043Z,66.58
2023-03-02T05:15:17.025Z,66.49
2023-03-02T05:16:17.076Z,66.38
2023-03-02T05:17:17.056Z,66.29
2023-03-02T05:18:17.032Z,66.18
2023-03-02T05:19:16.981Z,66.09
2023-03-02T05:20:16.970Z,66.05
2023-03-02T05:21:16.969Z,65.95
2023-03-02T05:22:16.966Z,65.91
2023-03-02T05:23:16.949Z,65.87
2023-03-02T05:24:16.945Z,65.87
2023-03-02T05:25:16.924Z,65.81
2023-03-02T05:26:16.911Z,65.78
2023-03-02T05:27:16.896Z,65.73
2023-03-02T05:28:16.932Z,65.67
2023-03-02T05:29:17.105Z,65.62
2023-03-02T05:30:16.974Z,65.59
2023-03-02T05:31:16.884Z,65.55
2023-03-02T05:32:16.891Z,65.53
2023-03-02T05:33:16.841Z,65.53
2023-03-02T05:34:16.842Z,65.49
2023-03-02T05:35:16.808Z,65.48
2023-03-02T05:36:19.280Z,65.43
2023-03-02T05:37:17.009Z,65.35
2023-03-02T05:38:16.804Z,65.32
2023-03-02T05:39:16.795Z,65.29
2023-03-02T05:40:16.799Z,65.28
2023-03-02T05:41:16.911Z,65.24
2023-03-02T05:42:16.813Z,65.22
2023-03-02T05:43:16.776Z,65.23
2023-03-02T05:44:16.917Z,65.22
2023-03-02T05:45:17.840Z,65.23
2023-03-02T05:46:16.871Z,65.24
2023-03-02T05:47:17.374Z,65.22
2023-03-02T05:48:17.940Z,65.20
2023-03-02T05:49:16.904Z,65.24
2023-03-02T05:50:17.009Z,65.25
2023-03-02T05:51:16.667Z,65.27
2023-03-02T05:52:17.170Z,65.23
2023-03-02T05:53:16.936Z,65.23
2023-03-02T05:54:16.636Z,65.21
2023-03-02T05:55:16.634Z,65.21
2023-03-02T05:56:16.608Z,65.18
2023-03-02T05:57:16.569Z,65.17
2023-03-02T05:58:16.555Z,65.16
2023-03-02T05:59:16.546Z,65.12
2023-03-02T06:00:16.553Z,65.13
2023-03-02T06:01:16.519Z,65.10
2023-03-02T06:02:16.618Z,65.06
2023-03-02T06:03:16.551Z,65.04
2023-03-02T06:04:16.527Z,65.10
2023-03-02T06:05:16.479Z,65.13
2023-03-02T06:06:16.482Z,65.11
2023-03-02T06:07:16.484Z,65.05
2023-03-02T06:08:16.446Z,65.03
2023-03-02T06:09:16.446Z,65.02
2023-03-02T06:10:16.477Z,64.97
2023-03-02T06:11:16.421Z,64.94
2023-03-02T06:12:16.529Z,64.88
2023-03-02T06:13:16.407Z,64.86
2023-03-02T06:14:16.525Z,64.88
2023-03-02T06:15:16.474Z,64.88
2023-03-02T06:16:16.459Z,64.87
2023-03-02T06:17:16.393Z,64.86
2023-03-02T06:18:16.429Z,64.87
2023-03-02T06:19:16.367Z,64.85
2023-03-02T06:20:16.669Z,64.81
2023-03-02T06:21:16.598Z,64.79
2023-03-02T06:34:38.396Z,64.51
2023-03-02T06:35:38.566Z,64.37
2023-03-02T06:36:38.421Z,64.38
2023-03-02T06:37:38.039Z,64.31
2023-03-02T06:38:37.991Z,64.22
2023-03-02T06:39:38.014Z,64.16
2023-03-02T06:40:37.976Z,64.10
2023-03-02T06:41:38.002Z,64.07
2023-03-02T06:42:37.959Z,64.02
2023-03-02T06:43:37.882Z,64.02
2023-03-02T06:44:38.061Z,63.98
2023-03-02T06:45:38.260Z,63.93
2023-03-02T06:46:38.091Z,63.80
2023-03-02T06:47:37.955Z,63.70
2023-03-02T06:48:37.783Z,63.65
2023-03-02T06:49:37.800Z,63.61
2023-03-02T06:50:37.783Z,63.58
2023-03-02T06:51:37.890Z,63.51
2023-03-02T06:52:37.762Z,63.52
2023-03-02T06:53:37.807Z,63.46
2023-03-02T06:54:37.792Z,63.35
2023-03-02T06:55:37.853Z,63.21
2023-03-02T06:56:39.508Z,63.15
2023-03-02T06:57:37.786Z,63.17
2023-03-02T06:58:37.836Z,63.16
2023-03-02T06:59:37.715Z,63.16
2023-03-02T07:00:37.915Z,63.13
2023-03-02T07:01:37.869Z,63.09
2023-03-02T07:02:37.651Z,63.09
2023-03-02T07:03:37.690Z,62.95
2023-03-02T07:04:37.668Z,62.92
2023-03-02T07:05:37.739Z,63.04
2023-03-02T07:06:37.596Z,63.02
2023-03-02T07:07:37.647Z,63.00
2023-03-02T07:08:37.607Z,63.02
2023-03-02T07:09:37.556Z,62.91
2023-03-02T07:10:37.509Z,62.89
2023-03-02T07:11:37.518Z,63.08
2023-03-02T07:12:37.546Z,63.14
2023-03-02T07:13:37.613Z,63.02
2023-03-02T07:14:37.435Z,62.89
2023-03-02T07:15:37.539Z,62.95
2023-03-02T07:16:37.467Z,62.96
2023-03-02T07:17:37.566Z,62.87
2023-03-02T07:18:37.573Z,62.99
2023-03-02T07:19:39.284Z,62.91
2023-03-02T07:20:37.457Z,62.88
2023-03-02T07:21:37.484Z,63.01
2023-03-02T07:22:37.489Z,63.02
2023-03-02T07:23:37.474Z,63.10
2023-03-02T07:24:37.391Z,62.97
2023-03-02T07:25:37.462Z,63.01
2023-03-02T07:26:37.387Z,63.17
2023-03-02T07:27:37.714Z,62.91
2023-03-02T07:28:37.422Z,62.89
2023-03-02T07:29:37.330Z,62.88
2023-03-02T07:30:37.426Z,63.01
2023-03-02T07:31:37.425Z,62.93
2023-03-02T07:32:37.517Z,62.76
2023-03-02T07:33:37.588Z,62.96
2023-03-02T07:34:37.273Z,63.12
2023-03-02T07:35:37.435Z,63.04
2023-03-02T07:36:37.327Z,63.07
2023-03-02T07:37:37.317Z,63.12
2023-03-02T07:38:37.225Z,62.99
2023-03-02T07:39:37.232Z,62.81
2023-03-02T07:40:37.313Z,62.83
2023-03-02T07:41:37.286Z,62.70
2023-03-02T07:42:37.226Z,62.71
2023-03-02T07:43:37.237Z,62.70
2023-03-02T07:44:37.228Z,62.71
2023-03-02T07:45:37.137Z,62.65
2023-03-02T07:46:37.240Z,62.67
2023-03-02T07:47:37.103Z,62.79
2023-03-02T07:48:37.205Z,62.83
2023-03-02T07:49:37.161Z,62.77
2023-03-02T07:50:37.160Z,62.67
2023-03-02T07:51:37.075Z,62.75
2023-03-02T07:52:37.153Z,62.82
2023-03-02T07:53:37.078Z,62.79
2023-03-02T07:54:37.082Z,62.84
2023-03-02T07:55:37.254Z,62.62
2023-03-02T07:56:37.195Z,62.68
2023-03-02T07:57:37.111Z,62.75
2023-03-02T07:58:36.993Z,62.92
2023-03-02T07:59:37.007Z,62.97
2023-03-02T08:00:37.111Z,62.92
2023-03-02T08:01:37.033Z,62.73
2023-03-02T08:02:37.064Z,62.69
2023-03-02T08:03:37.006Z,62.84
2023-03-02T08:04:37.008Z,62.82
2023-03-02T08:05:37.145Z,62.50
2023-03-02T08:06:37.047Z,62.56
2023-03-02T08:07:37.039Z,62.63
2023-03-02T08:08:37.042Z,62.63
2023-03-02T08:09:36.899Z,62.67
2023-03-02T08:10:37.061Z,62.60
2023-03-02T08:11:36.902Z,62.65
2023-03-02T08:12:36.917Z,62.72
2023-03-02T08:13:36.852Z,62.73
2023-03-02T08:14:36.820Z,62.73
2023-03-02T08:15:36.845Z,62.73
2023-03-02T08:16:37.015Z,62.59
2023-03-02T08:17:37.046Z,62.55
2023-03-02T08:18:36.881Z,62.32
2023-03-02T08:19:36.771Z,62.35
2023-03-02T08:20:36.844Z,62.45
2023-03-02T08:21:36.770Z,62.51
2023-03-02T08:22:36.793Z,62.40
2023-03-02T08:23:36.796Z,62.43
2023-03-02T08:24:36.982Z,62.50
2023-03-02T08:25:36.744Z,62.53
2023-03-02T08:26:36.723Z,62.55
2023-03-02T08:27:36.769Z,62.56
2023-03-02T08:28:36.721Z,62.55
2023-03-02T08:29:36.824Z,62.58
2023-03-02T08:30:36.655Z,62.57
2023-03-02T08:31:36.990Z,62.53
2023-03-02T08:32:36.692Z,62.45
2023-03-02T08:33:36.675Z,62.41
2023-03-02T08:34:36.669Z,62.39
2023-03-02T08:35:36.655Z,62.42
2023-03-02T08:36:36.583Z,62.37
2023-03-02T08:37:36.591Z,62.41
2023-03-02T08:38:36.556Z,62.28
2023-03-02T08:39:36.709Z,62.28
2023-03-02T08:40:36.699Z,62.34
2023-03-02T08:41:36.625Z,62.27
2023-03-02T08:42:36.616Z,62.08
2023-03-02T08:43:36.488Z,62.12
2023-03-02T08:44:36.474Z,62.18
2023-03-02T08:45:36.685Z,62.17
2023-03-02T08:46:36.713Z,62.21
2023-03-02T08:47:36.479Z,62.24
2023-03-02T08:48:36.486Z,62.29
2023-03-02T08:49:36.602Z,62.24
2023-03-02T08:50:36.640Z,62.18
2023-03-02T08:51:36.404Z,62.17
2023-03-02T08:52:36.438Z,62.23
2023-03-02T08:53:36.462Z,62.21
2023-03-02T08:54:36.379Z,62.06
2023-03-02T08:55:36.407Z,62.05
2023-03-02T08:56:36.676Z,62.10
2023-03-02T08:57:36.392Z,62.06
2023-03-02T08:58:36.382Z,62.08
2023-03-02T08:59:36.312Z,62.00
2023-03-02T09:00:36.308Z,61.88
2023-03-02T09:01:36.814Z,62.00
2023-03-02T09:02:36.331Z,61.95
2023-03-02T09:03:36.291Z,61.92
2023-03-02T09:04:36.412Z,61.83
2023-03-02T09:05:36.534Z,61.91
2023-03-02T09:06:36.280Z,61.78
2023-03-02T09:07:36.288Z,61.73
2023-03-02T09:08:36.293Z,61.79
2023-03-02T09:09:36.241Z,61.52
2023-03-02T09:10:36.217Z,61.58
2023-03-02T09:11:36.265Z,61.66
2023-03-02T09:12:36.211Z,61.55
2023-03-02T09:13:36.223Z,61.43
2023-03-02T09:14:36.231Z,61.41
2023-03-02T09:15:36.176Z,61.57
2023-03-02T09:16:36.284Z,61.37
2023-03-02T09:17:36.150Z,61.25
2023-03-02T09:18:36.219Z,61.16
2023-03-02T09:19:36.201Z,61.31
2023-03-02T09:20:36.166Z,61.40
2023-03-02T09:21:36.252Z,61.44
2023-03-02T09:22:36.144Z,61.35
2023-03-02T09:23:36.122Z,61.07
2023-03-02T09:24:36.153Z,61.08
2023-03-02T09:25:36.120Z,61.29
2023-03-02T09:26:36.127Z,61.24
2023-03-02T09:27:36.110Z,61.35
2023-03-02T09:28:36.068Z,61.36
2023-03-02T09:29:36.074Z,60.99
2023-03-02T09:30:36.031Z,60.82
2023-03-02T09:31:36.585Z,61.09
2023-03-02T09:32:36.269Z,61.03
2023-03-02T09:33:36.002Z,60.98
2023-03-02T09:34:36.012Z,60.85
2023-03-02T09:35:35.976Z,60.58
2023-03-02T09:36:36.016Z,60.79
2023-03-02T09:37:35.972Z,60.85
2023-03-02T09:38:35.972Z,60.90
2023-03-02T09:39:35.977Z,60.89
2023-03-02T09:40:35.920Z,60.73
2023-03-02T09:41:36.085Z,60.81
2023-03-02T09:42:43.830Z,60.64
2023-03-02T09:43:36.948Z,60.41
2023-03-02T09:44:35.901Z,60.43
2023-03-02T09:45:35.951Z,60.23
2023-03-02T09:46:35.920Z,60.07
2023-03-02T09:47:36.302Z,60.04
2023-03-02T09:48:35.793Z,60.24
2023-03-02T09:49:35.858Z,60.20
2023-03-02T09:50:35.897Z,59.92
2023-03-02T09:51:35.754Z,60.21
2023-03-02T09:52:35.759Z,60.14
2023-03-02T09:53:35.744Z,60.09
2023-03-02T09:54:35.787Z,60.08
2023-03-02T09:55:35.703Z,60.04
2023-03-02T09:56:35.804Z,59.90
2023-03-02T09:57:35.697Z,59.74
2023-03-02T09:58:35.690Z,59.74
2023-03-02T09:59:35.689Z,59.69
2023-03-02T10:00:35.667Z,59.47
2023-03-02T10:01:35.687Z,59.19
2023-03-02T10:02:35.650Z,59.35
2023-03-02T10:03:35.918Z,59.20
2023-03-02T10:04:35.756Z,59.41
2023-03-02T10:05:35.611Z,59.11
2023-03-02T10:06:35.620Z,59.23
2023-03-02T10:07:35.621Z,59.43
2023-03-02T10:08:35.620Z,59.38
2023-03-02T10:09:35.579Z,59.07
2023-03-02T10:10:35.572Z,58.73
2023-03-02T10:11:35.584Z,59.05
2023-03-02T10:12:35.546Z,59.19
2023-03-02T10:13:35.500Z,58.97
2023-03-02T10:14:35.519Z,59.15
2023-03-02T10:15:35.525Z,59.14
2023-03-02T10:16:35.794Z,59.08
2023-03-02T10:17:35.490Z,59.11
2023-03-02T10:18:35.564Z,59.11
2023-03-02T10:19:35.489Z,59.09
2023-03-02T10:20:35.560Z,58.79
2023-03-02T10:21:35.565Z,58.76
2023-03-02T10:22:35.471Z,58.99
2023-03-02T10:23:35.504Z,58.96
2023-03-02T10:24:35.423Z,59.04
2023-03-02T10:25:35.410Z,58.94
2023-03-02T10:26:35.679Z,58.90
2023-03-02T10:27:35.446Z,58.97
2023-03-02T10:28:35.429Z,58.76
2023-03-02T10:29:35.387Z,58.58
2023-03-02T10:30:35.513Z,58.77
2023-03-02T10:31:35.404Z,58.59
2023-03-02T10:32:35.406Z,58.63
2023-03-02T10:33:35.394Z,58.84
2023-03-02T10:34:35.323Z,59.01
2023-03-02T10:35:35.373Z,59.09
2023-03-02T10:36:35.567Z,59.24
2023-03-02T10:37:35.306Z,59.09
2023-03-02T10:38:35.247Z,58.76
2023-03-02T10:39:35.251Z,58.60
2023-03-02T10:40:35.256Z,58.63
2023-03-02T10:41:35.240Z,58.81
2023-03-02T10:42:35.192Z,58.85
2023-03-02T10:43:35.423Z,58.89
2023-03-02T10:44:35.256Z,58.82
2023-03-02T10:45:35.347Z,58.79
2023-03-02T10:46:35.520Z,58.78
2023-03-02T10:47:35.190Z,58.81
2023-03-02T10:48:41.051Z,58.83
2023-03-02T10:49:36.193Z,58.82
2023-03-02T10:50:35.171Z,58.71
2023-03-02T10:51:35.102Z,58.77
2023-03-02T10:52:35.138Z,58.82
2023-03-02T10:53:35.103Z,58.87
2023-03-02T10:54:35.131Z,58.73
2023-03-02T10:55:35.145Z,58.60
2023-03-02T10:56:35.501Z,58.53
2023-03-02T10:57:35.056Z,58.47
2023-03-02T10:58:35.238Z,58.45
2023-03-02T10:59:35.128Z,58.44
2023-03-02T11:00:35.115Z,58.41
2023-03-02T11:01:35.035Z,58.45
2023-03-02T11:02:35.034Z,58.53
2023-03-02T11:03:34.981Z,58.56
2023-03-02T11:04:35.070Z,58.60
2023-03-02T11:05:35.027Z,58.58
2023-03-02T11:06:35.210Z,58.38
2023-03-02T11:07:35.041Z,58.18
2023-03-02T11:08:34.900Z,58.18
2023-03-02T11:09:35.034Z,58.17
2023-03-02T11:10:34.874Z,58.01
2023-03-02T11:11:35.424Z,57.97
2023-03-02T11:12:34.851Z,58.05
2023-03-02T11:13:34.865Z,58.19
2023-03-02T11:14:34.936Z,58.14
2023-03-02T11:15:34.884Z,58.13
2023-03-02T11:16:34.805Z,58.12
2023-03-02T11:17:34.862Z,58.28
2023-03-02T11:18:34.874Z,58.45
2023-03-02T11:19:34.880Z,58.33
2023-03-02T11:20:34.863Z,58.13
2023-03-02T11:21:35.079Z,57.88
2023-03-02T11:22:34.787Z,57.85
2023-03-02T11:23:34.743Z,58.02
2023-03-02T11:24:34.783Z,58.21
2023-03-02T11:25:34.705Z,58.09
2023-03-02T11:26:34.941Z,58.09
2023-03-02T11:27:34.687Z,58.21
2023-03-02T11:28:34.829Z,58.30
2023-03-02T11:29:34.714Z,58.11
2023-03-02T11:30:34.706Z,58.00
2023-03-02T11:31:35.219Z,58.00
2023-03-02T11:32:34.745Z,58.02
2023-03-02T11:33:34.668Z,57.90
2023-03-02T11:34:34.669Z,57.99
2023-03-02T11:35:34.681Z,58.15
2023-03-02T11:36:34.630Z,58.07
2023-03-02T11:37:34.572Z,58.06
2023-03-02T11:38:34.571Z,58.01
2023-03-02T11:39:35.129Z,57.86
2023-03-02T11:40:34.615Z,57.87
2023-03-02T11:41:34.928Z,58.28
2023-03-02T11:42:34.593Z,58.38
2023-03-02T11:43:34.545Z,58.64
2023-03-02T11:44:34.531Z,58.76
2023-03-02T11:45:34.517Z,58.60
2023-03-02T11:46:34.584Z,58.47
2023-03-02T11:47:34.489Z,58.57
2023-03-02T11:48:34.485Z,58.57
2023-03-02T11:49:34.524Z,58.61
2023-03-02T11:50:34.473Z,58.88
2023-03-02T11:51:34.791Z,58.83
2023-03-02T11:52:34.433Z,58.77
2023-03-02T11:53:34.469Z,58.72
2023-03-02T11:54:34.403Z,58.63
2023-03-02T11:55:34.379Z,58.65
2023-03-02T11:56:34.389Z,58.59
2023-03-02T11:57:34.373Z,58.57
2023-03-02T11:58:34.547Z,58.51
2023-03-02T11:59:34.359Z,58.48
2023-03-02T12:00:34.382Z,58.58
2023-03-02T12:01:34.643Z,58.59
2023-03-02T12:02:34.347Z,58.44
2023-03-02T12:03:34.333Z,58.42
2023-03-02T12:04:34.305Z,58.39
2023-03-02T12:05:34.367Z,58.43
2023-03-02T12:06:34.619Z,58.44
2023-03-02T12:07:34.263Z,58.53
2023-03-02T12:08:34.268Z,58.59
2023-03-02T12:09:34.242Z,58.53
2023-03-02T12:10:34.241Z,58.48
2023-03-02T12:11:34.237Z,58.57
2023-03-02T12:12:34.233Z,58.60
2023-03-02T12:13:34.363Z,58.54
2023-03-02T12:14:34.205Z,58.49
2023-03-02T12:15:34.177Z,58.58
2023-03-02T12:16:34.549Z,58.51
2023-03-02T12:17:34.176Z,58.47
2023-03-02T12:18:34.164Z,58.57
2023-03-02T12:19:34.184Z,58.75
2023-03-02T12:20:34.242Z,58.68
2023-03-02T12:21:34.160Z,58.66
2023-03-02T12:22:41.623Z,58.72
2023-03-02T12:23:34.050Z,58.82
2023-03-02T12:24:34.038Z,58.82
2023-03-02T12:25:42.818Z,58.87
2023-03-02T12:26:34.580Z,58.91
2023-03-02T12:27:34.458Z,59.15
2023-03-02T12:28:41.485Z,59.25
2023-03-02T12:29:33.997Z,59.17
2023-03-02T12:30:33.962Z,59.15
2023-03-02T12:31:33.987Z,59.10
2023-03-02T12:32:33.954Z,58.94
2023-03-02T12:33:40.966Z,58.99
2023-03-02T12:34:41.462Z,58.94
2023-03-02T12:35:42.702Z,58.98
2023-03-02T12:36:34.156Z,58.94
2023-03-02T12:37:33.872Z,58.86
2023-03-02T12:38:41.437Z,59.06
2023-03-02T12:39:41.476Z,59.17
2023-03-02T12:40:33.891Z,59.25
2023-03-02T12:41:33.904Z,59.25
2023-03-02T12:42:33.874Z,59.21
2023-03-02T12:43:33.828Z,59.12
2023-03-02T12:44:33.800Z,58.93
2023-03-02T12:45:33.817Z,58.91
2023-03-02T12:46:34.116Z,59.01
2023-03-02T12:47:33.983Z,59.17
2023-03-02T12:48:33.764Z,59.23
2023-03-02T12:49:33.793Z,59.40
2023-03-02T12:50:33.735Z,59.46
2023-03-02T12:51:33.840Z,59.39
2023-03-02T12:52:33.785Z,59.43
2023-03-02T12:53:33.720Z,59.56
2023-03-02T12:54:33.793Z,59.43
2023-03-02T12:55:33.718Z,59.27
2023-03-02T12:56:34.130Z,59.22
2023-03-02T12:57:33.744Z,59.32
2023-03-02T12:58:33.660Z,59.51
2023-03-02T12:59:33.667Z,59.65
2023-03-02T13:00:33.629Z,59.69
2023-03-02T13:01:33.679Z,59.64
2023-03-02T13:02:33.659Z,59.54
2023-03-02T13:03:33.610Z,59.58
2023-03-02T13:04:33.590Z,59.67
2023-03-02T13:05:33.637Z,59.60